Time;durP1;ratioP1;P1;durP2;ratioP2;P2;SDS_P1;SDS_P2;PMS_P1;PMS_P2;Temp;Humidity;BMP_temperature;BMP_pressure;BME280_temperature;BME280_humidity;BME280_pressure;Samples;Min_cycle;Max_cycle;Signal;HPM_P1;HPM_P2
2022/05/31 00:00:41;;;;;;;0.60;0.60;;;10.60;57.90;10.10;97920.00;;;;5094597;28;20532;-75
2022/05/31 00:03:11;;;;;;;0.50;0.50;;;10.60;58.70;10.10;97921.00;;;;5094521;28;20243;-77
2022/05/31 00:05:40;;;;;;;0.50;0.50;;;10.70;58.00;9.80;97917.00;;;;5094443;28;20309;-78
2022/05/31 00:08:07;;;;;;;0.43;0.43;;;10.60;58.20;9.90;97917.00;;;;5077045;28;20198;-78
2022/05/31 00:10:35;;;;;;;0.60;0.60;;;10.50;58.70;9.80;97913.00;;;;5093262;28;20207;-76
2022/05/31 00:13:02;;;;;;;0.70;0.70;;;10.50;59.10;9.90;97915.00;;;;5094327;28;20198;-76
2022/05/31 00:15:29;;;;;;;12.00;0.97;;;10.50;58.90;9.80;97912.00;;;;5094172;28;20225;-77
2022/05/31 00:17:56;;;;;;;0.70;0.70;;;10.50;58.80;9.70;97918.00;;;;5094120;28;20666;-76
2022/05/31 00:20:23;;;;;;;0.57;0.57;;;10.40;59.00;9.80;97921.00;;;;5094204;28;20272;-77
2022/05/31 00:22:51;;;;;;;0.80;0.80;;;10.40;58.70;9.80;97909.00;;;;5094285;28;20203;-77
2022/05/31 00:25:19;;;;;;;0.60;0.60;;;10.40;59.00;9.70;97910.00;;;;5093965;28;20698;-77
2022/05/31 00:27:45;;;;;;;0.57;0.57;;;10.30;59.10;9.40;97909.00;;;;5094153;28;20194;-76
2022/05/31 00:30:14;;;;;;;0.80;0.80;;;10.10;59.10;9.50;97902.00;;;;5094089;28;20190;-76
2022/05/31 00:32:46;;;;;;;1.20;1.17;;;10.10;60.80;9.60;97904.00;;;;5093976;28;20210;-77
2022/05/31 00:35:16;;;;;;;0.87;0.87;;;10.10;60.20;9.50;97888.00;;;;5093977;28;20226;-76
2022/05/31 00:37:44;;;;;;;0.70;0.70;;;10.10;59.80;9.60;97897.00;;;;5093986;28;20279;-76
2022/05/31 00:40:13;;;;;;;0.93;0.93;;;10.10;60.00;9.60;97901.00;;;;5098375;28;20198;-77
2022/05/31 00:42:53;;;;;;;1.30;1.30;;;10.20;59.70;9.50;97900.00;;;;5099191;28;20197;-76
2022/05/31 00:45:21;;;;;;;1.00;1.00;;;10.10;60.00;9.40;97894.00;;;;5076129;28;20247;-76
2022/05/31 00:47:50;;;;;;;0.60;0.60;;;10.00;61.20;9.40;97890.00;;;;5093936;28;20207;-77
2022/05/31 00:50:28;;;;;;;7.20;1.70;;;10.00;59.70;9.40;97897.00;;;;5093701;28;20671;-76
2022/05/31 00:53:01;;;;;;;0.67;0.67;;;10.00;59.90;9.40;97891.00;;;;5093759;28;20342;-77
2022/05/31 00:55:36;;;;;;;2.53;1.17;;;10.00;60.10;9.30;97899.00;;;;5093554;28;20219;-76
2022/05/31 00:58:08;;;;;;;1.90;0.80;;;10.00;60.10;9.30;97894.00;;;;5093592;28;20218;-77
2022/05/31 01:00:39;;;;;;;0.70;0.70;;;9.90;60.90;9.40;97875.00;;;;5093661;28;20193;-75
2022/05/31 01:03:09;;;;;;;0.50;0.50;;;10.00;60.60;9.30;97863.00;;;;5094001;28;20199;-77
2022/05/31 01:05:38;;;;;;;0.50;0.50;;;9.90;61.30;9.20;97889.00;;;;5093549;28;20229;-76
2022/05/31 01:08:06;;;;;;;1.27;1.13;;;9.80;60.40;9.20;97894.00;;;;5076020;28;20302;-77
2022/05/31 01:10:33;;;;;;;0.60;0.60;;;9.80;61.20;9.30;97894.00;;;;5093478;28;20654;-76
2022/05/31 01:13:03;;;;;;;0.70;0.70;;;9.80;61.10;9.20;97897.00;;;;5093552;28;20203;-77
2022/05/31 01:15:30;;;;;;;0.50;0.50;;;9.80;60.60;9.10;97900.00;;;;5093437;28;20282;-76
2022/05/31 01:17:58;;;;;;;0.70;0.70;;;9.70;61.10;8.80;97893.00;;;;5093384;28;20248;-77
2022/05/31 01:20:26;;;;;;;0.70;0.70;;;9.60;61.70;9.00;97892.00;;;;5092668;28;20301;-77
2022/05/31 01:22:56;;;;;;;5.60;1.37;;;9.60;62.10;9.00;97897.00;;;;5097008;28;20187;-77
2022/05/31 01:25:50;;;;;;;1.20;1.20;;;9.60;62.20;9.10;97890.00;;;;5096990;28;20198;-77
2022/05/31 01:28:32;;;;;;;0.70;0.70;;;9.60;62.10;9.10;97902.00;;;;5079131;28;20199;-77
2022/05/31 01:31:04;;;;;;;0.90;0.90;;;9.60;61.90;8.90;97909.00;;;;5097033;28;20222;-77
2022/05/31 01:33:40;;;;;;;0.90;0.90;;;9.60;62.00;8.80;97903.00;;;;5097092;28;20299;-77
2022/05/31 01:36:13;;;;;;;0.60;0.60;;;9.60;62.20;8.90;97908.00;;;;5096780;28;20222;-77
2022/05/31 01:38:46;;;;;;;0.50;0.50;;;9.50;62.10;8.80;97896.00;;;;5096706;28;20225;-77
2022/05/31 01:41:21;;;;;;;0.57;0.57;;;9.50;61.80;8.70;97890.00;;;;5096698;28;20218;-77
2022/05/31 01:43:53;;;;;;;0.70;0.70;;;9.40;62.40;8.70;97888.00;;;;5096499;28;20218;-77
2022/05/31 01:46:28;;;;;;;0.80;0.80;;;9.30;62.90;8.80;97892.00;;;;5096750;28;20282;-76
2022/05/31 01:48:59;;;;;;;0.70;0.70;;;9.30;63.20;8.70;97881.00;;;;5096501;28;20210;-77
2022/05/31 01:51:30;;;;;;;0.53;0.53;;;9.30;63.00;8.70;97883.00;;;;5095645;28;20230;-77
2022/05/31 01:53:59;;;;;;;0.70;0.70;;;;;8.70;97886.00;;;;5096577;28;20198;-77
2022/05/31 01:56:26;;;;;;;0.90;0.90;;;9.30;61.80;8.70;97892.00;;;;5096357;28;20214;-77
2022/05/31 01:58:55;;;;;;;0.77;0.77;;;9.30;62.80;8.60;97886.00;;;;5096451;28;20708;-78
2022/05/31 02:01:23;;;;;;;0.80;0.80;;;9.30;62.70;8.50;97888.00;;;;5096348;28;20206;-77
2022/05/31 02:03:50;;;;;;;1.00;1.00;;;9.20;62.80;8.50;97889.00;;;;5096283;28;20275;-77
2022/05/31 02:06:30;;;;;;;0.83;0.83;;;9.10;63.10;8.50;97882.00;;;;5078730;28;20234;-76
2022/05/31 02:09:00;;;;;;;0.93;0.93;;;9.10;63.50;8.50;97876.00;;;;5096245;28;20229;-77
2022/05/31 02:11:29;;;;;;;1.00;1.00;;;9.20;63.40;8.50;97883.00;;;;5096101;28;20242;-77
2022/05/31 02:13:58;;;;;;;1.73;1.63;;;9.10;63.60;8.50;97881.00;;;;5096192;28;20282;-77
2022/05/31 02:16:25;;;;;;;0.63;0.63;;;9.10;63.00;8.40;97883.00;;;;5096134;28;20371;-78
2022/05/31 02:21:40;;;;;;;0.77;0.77;;;9.10;63.50;8.50;97895.00;;;;5096130;28;20252;-77
2022/05/31 02:24:09;;;;;;;0.80;0.80;;;9.10;64.00;8.60;97896.00;;;;5095885;28;20312;-76
2022/05/31 02:26:37;;;;;;;1.27;1.17;;;9.20;64.40;8.70;97884.00;;;;5095918;28;20202;-76
2022/05/31 02:29:03;;;;;;;1.37;1.27;;;9.20;63.10;8.40;97880.00;;;;5095974;28;20736;-77
2022/05/31 02:31:30;;;;;;;0.63;0.63;;;9.10;62.90;8.50;97887.00;;;;5095786;28;20222;-77
2022/05/31 02:33:58;;;;;;;0.63;0.63;;;9.10;63.20;8.50;97883.00;;;;5094852;28;20195;-76
2022/05/31 02:36:25;;;;;;;0.90;0.90;;;9.10;63.10;8.50;97885.00;;;;5095622;28;20283;-76
2022/05/31 02:38:53;;;;;;;0.70;0.70;;;9.10;63.00;8.50;97883.00;;;;5095837;28;20202;-76
2022/05/31 02:41:19;;;;;;;0.87;0.87;;;9.10;63.50;8.50;97890.00;;;;5095710;28;20202;-77
2022/05/31 02:43:46;;;;;;;0.90;0.90;;;9.10;63.80;8.40;97896.00;;;;5096013;28;20276;-76
2022/05/31 02:46:13;;;;;;;0.90;0.90;;;9.10;63.10;8.10;97895.00;;;;5097117;28;20257;-77
2022/05/31 02:48:40;;;;;;;0.83;0.83;;;8.90;63.20;8.30;97901.00;;;;5096944;28;20237;-80
2022/05/31 02:51:09;;;;;;;0.80;0.80;;;9.00;64.30;8.10;97900.00;;;;5083041;28;20279;-77
2022/05/31 02:53:37;;;;;;;0.83;0.83;;;8.90;64.20;8.20;97885.00;;;;5099224;28;20241;-77
2022/05/31 02:56:05;;;;;;;0.70;0.70;;;8.90;64.70;8.10;97879.00;;;;5095497;28;20230;-76
2022/05/31 02:58:34;;;;;;;0.60;0.60;;;8.80;64.70;8.20;97880.00;;;;5095605;28;20553;-74
2022/05/31 03:01:02;;;;;;;1.13;1.00;;;8.80;64.70;8.20;97880.00;;;;5077563;28;20303;-74
2022/05/31 03:03:29;;;;;;;0.80;0.80;;;8.80;64.70;8.20;97868.00;;;;5095336;28;20246;-76
2022/05/31 03:05:58;;;;;;;0.90;0.90;;;8.80;64.40;8.20;97876.00;;;;5077646;28;20228;-76
2022/05/31 03:08:24;;;;;;;0.60;0.60;;;8.80;64.80;8.00;97874.00;;;;5095430;28;20282;-76
2022/05/31 03:10:54;;;;;;;0.70;0.70;;;8.70;63.70;8.00;97877.00;;;;5095180;28;20300;-76
2022/05/31 03:13:26;;;;;;;0.57;0.57;;;8.60;64.20;8.00;97881.00;;;;5095325;28;20212;-76
2022/05/31 03:15:58;;;;;;;0.60;0.60;;;8.70;64.30;8.10;97889.00;;;;5095335;28;20325;-76
2022/05/31 03:18:32;;;;;;;1.27;1.27;;;8.60;64.40;8.00;97886.00;;;;5095138;28;20220;-75
2022/05/31 03:21:06;;;;;;;0.50;0.50;;;8.60;64.60;8.00;97882.00;;;;5095201;28;20199;-75
2022/05/31 03:23:39;;;;;;;0.80;0.80;;;8.60;65.00;8.00;97883.00;;;;5095021;28;20244;-76
2022/05/31 03:26:10;;;;;;;0.97;0.97;;;8.60;64.70;7.90;97881.00;;;;5095054;28;20218;-76
2022/05/31 03:28:38;;;;;;;1.00;1.00;;;8.60;64.70;7.90;97885.00;;;;5095119;28;20271;-76
2022/05/31 03:31:07;;;;;;;0.80;0.80;;;8.60;64.70;7.90;97894.00;;;;5077456;28;20225;-76
2022/05/31 03:33:33;;;;;;;0.80;0.80;;;8.60;65.20;8.00;97890.00;;;;5095077;28;20274;-75
2022/05/31 03:36:00;;;;;;;0.80;0.80;;;8.60;65.90;8.00;97882.00;;;;5094666;28;20313;-76
2022/05/31 03:38:27;;;;;;;1.57;1.30;;;8.60;65.10;8.00;97887.00;;;;5076967;28;20202;-75
2022/05/31 03:40:56;;;;;;;0.70;0.70;;;8.60;65.30;8.10;97896.00;;;;5095003;28;20791;-74
2022/05/31 03:43:24;;;;;;;0.60;0.60;;;8.60;65.20;8.10;97898.00;;;;5094741;28;20327;-76
2022/05/31 03:45:51;;;;;;;0.70;0.70;;;8.70;65.10;8.10;97884.00;;;;5094669;28;20190;-75
2022/05/31 03:48:18;;;;;;;0.70;0.70;;;8.70;65.10;8.20;97878.00;;;;5094724;28;20512;-76
2022/05/31 03:50:45;;;;;;;1.33;1.27;;;8.80;64.90;8.30;97868.00;;;;5094572;28;20230;-76
2022/05/31 03:53:14;;;;;;;0.60;0.60;;;8.80;64.70;8.10;97872.00;;;;5094572;28;20227;-76
2022/05/31 03:55:44;;;;;;;0.80;0.80;;;8.70;64.80;8.10;97869.00;;;;5094389;28;20653;-76
2022/05/31 03:58:11;;;;;;;0.77;0.77;;;8.70;64.50;8.10;97877.00;;;;5094477;28;20191;-76
2022/05/31 04:00:37;;;;;;;1.13;1.13;;;8.80;64.40;8.20;97872.00;;;;5076641;28;20214;-75
2022/05/31 04:03:07;;;;;;;0.67;0.67;;;8.70;64.60;8.10;97872.00;;;;5094354;28;20226;-75
2022/05/31 04:05:34;;;;;;;0.50;0.50;;;8.70;64.70;8.20;97874.00;;;;5094779;28;20236;-75
2022/05/31 04:08:06;;;;;;;0.67;0.67;;;8.70;66.20;8.30;97874.00;;;;5094609;28;20211;-75
2022/05/31 04:10:33;;;;;;;0.67;0.67;;;8.90;65.00;8.00;97867.00;;;;5094257;28;20230;-75
2022/05/31 04:13:03;;;;;;;0.77;0.77;;;8.70;64.90;8.10;97876.00;;;;5094361;28;20202;-75
2022/05/31 04:15:33;;;;;;;0.63;0.63;;;8.70;65.30;8.30;97866.00;;;;5094258;28;20232;-76
2022/05/31 04:17:59;;;;;;;1.10;1.10;;;8.90;65.90;8.30;97869.00;;;;5094383;28;20222;-75
2022/05/31 04:20:29;;;;;;;0.80;0.80;;;8.90;64.90;8.50;97840.00;;;;5080820;28;20226;-76
2022/05/31 04:23:57;;;;;;;1.23;1.23;;;9.00;65.10;8.60;97866.00;;;;5099840;28;20237;-75
2022/05/31 04:25:44;;;;;;;1.07;1.07;;;9.10;65.10;8.60;97852.00;;;;5094193;28;20202;-75
2022/05/31 04:28:11;;;;;;;0.93;0.93;;;9.20;64.80;8.60;97862.00;;;;5094134;28;20236;-76
2022/05/31 04:30:38;;;;;;;0.93;0.93;;;9.20;64.40;8.60;97829.00;;;;5093937;28;20247;-76
2022/05/31 04:33:07;;;;;;;3.73;2.10;;;9.20;64.80;8.70;97857.00;;;;5094256;28;20837;-76
2022/05/31 04:35:34;;;;;;;1.00;1.00;;;9.30;65.20;8.60;97858.00;;;;5076183;28;20595;-76
2022/05/31 04:38:01;;;;;;;0.80;0.80;;;9.30;65.00;8.60;97853.00;;;;5093959;28;20268;-78
2022/05/31 04:40:27;;;;;;;5.10;1.13;;;9.20;65.50;8.60;97853.00;;;;5093920;28;20241;-76
2022/05/31 04:42:56;;;;;;;0.87;0.87;;;9.20;65.50;8.60;97856.00;;;;5093992;28;20305;-76
2022/05/31 04:45:23;;;;;;;0.70;0.70;;;9.20;65.40;8.70;97844.00;;;;5094020;28;20274;-76
2022/05/31 04:47:52;;;;;;;0.77;0.77;;;9.30;65.50;8.80;97851.00;;;;5093931;28;20274;-75
2022/05/31 04:50:18;;;;;;;0.60;0.60;;;9.40;65.50;8.70;97851.00;;;;5093636;28;20245;-76
2022/05/31 04:52:48;;;;;;;1.13;1.03;;;9.30;65.50;8.80;97853.00;;;;5093883;28;20803;-76
2022/05/31 04:55:17;;;;;;;0.80;0.80;;;9.30;65.00;8.70;97853.00;;;;5093389;28;20211;-76
2022/05/31 04:57:44;;;;;;;0.77;0.77;;;9.30;65.20;8.80;97857.00;;;;5075554;28;20202;-76
2022/05/31 05:00:13;;;;;;;0.87;0.87;;;9.40;64.90;8.80;97860.00;;;;5093938;28;20194;-76
2022/05/31 05:02:39;;;;;;;0.87;0.80;;;9.40;64.60;8.70;97867.00;;;;5093638;28;20309;-76
2022/05/31 05:05:07;;;;;;;0.70;0.70;;;9.30;64.40;8.80;97868.00;;;;5093766;28;20218;-76
2022/05/31 05:07:36;;;;;;;24.60;1.37;;;9.40;64.20;8.80;97859.00;;;;5093529;28;20629;-76
2022/05/31 05:10:05;;;;;;;0.90;0.90;;;9.30;64.30;8.90;97858.00;;;;5093287;28;20233;-77
2022/05/31 05:12:36;;;;;;;0.80;0.80;;;9.50;64.40;9.00;97844.00;;;;5093522;28;20230;-76
2022/05/31 05:15:05;;;;;;;0.70;0.70;;;9.60;64.70;9.10;97850.00;;;;5093709;28;20208;-76
2022/05/31 05:17:32;;;;;;;0.90;0.90;;;9.70;65.00;9.20;97859.00;;;;5092709;28;20245;-77
2022/05/31 05:19:59;;;;;;;0.77;0.77;;;9.80;64.70;9.40;97850.00;;;;5093405;28;20217;-76
2022/05/31 05:22:28;;;;;;;0.80;0.80;;;9.90;64.30;9.40;97851.00;;;;5093419;28;20309;-75
2022/05/31 05:24:57;;;;;;;0.90;0.90;;;9.90;63.90;9.30;97848.00;;;;5093621;28;20198;-76
2022/05/31 05:27:25;;;;;;;0.70;0.70;;;10.00;65.10;9.30;97846.00;;;;5093490;28;20267;-78
2022/05/31 05:32:38;;;;;;;1.73;1.63;;;10.10;65.90;9.70;97844.00;;;;5075489;28;20194;-76
2022/05/31 05:35:06;;;;;;;0.73;0.73;;;10.30;66.30;10.10;97850.00;;;;5093151;28;20301;-76
2022/05/31 05:37:33;;;;;;;0.90;0.90;;;10.50;65.70;10.10;97847.00;;;;5093025;28;20301;-76
2022/05/31 05:40:02;;;;;;;0.60;0.60;;;10.70;66.00;10.40;97853.00;;;;5093360;28;20222;-76
2022/05/31 05:42:29;;;;;;;0.70;0.70;;;10.80;65.10;10.50;97855.00;;;;5092254;28;20341;-76
2022/05/31 05:44:56;;;;;;;0.90;0.90;;;11.00;63.50;10.70;97847.00;;;;5093265;28;20661;-76
2022/05/31 05:47:22;;;;;;;0.90;0.90;;;11.20;63.40;10.80;97847.00;;;;5093139;28;20190;-77
2022/05/31 05:49:49;;;;;;;1.20;1.10;;;11.30;62.60;10.80;97850.00;;;;5093148;28;20314;-76
2022/05/31 05:52:16;;;;;;;1.10;1.10;;;11.40;62.90;11.00;97844.00;;;;5093394;28;20361;-75
2022/05/31 05:54:44;;;;;;;3.83;1.60;;;11.50;62.50;11.10;97831.00;;;;5093149;28;20404;-76
2022/05/31 05:57:11;;;;;;;0.60;0.60;;;11.60;61.00;11.20;97837.00;;;;5093030;28;20629;-76
2022/05/31 05:59:38;;;;;;;1.27;1.17;;;11.70;61.20;11.40;97837.00;;;;5092903;28;20211;-77
2022/05/31 06:02:14;;;;;;;0.90;0.90;;;11.80;60.10;11.50;97844.00;;;;5092735;28;20578;-77
2022/05/31 06:04:49;;;;;;;0.90;0.90;;;12.20;60.00;11.80;97850.00;;;;5092910;28;20210;-77
2022/05/31 06:07:21;;;;;;;1.00;0.80;;;12.30;60.80;12.10;97844.00;;;;5093171;28;20186;-77
2022/05/31 06:09:55;;;;;;;0.60;0.60;;;12.50;60.10;12.40;97846.00;;;;5096119;28;20309;-76
2022/05/31 06:12:27;;;;;;;0.97;0.97;;;12.70;58.80;12.50;97850.00;;;;5096318;28;20304;-76
2022/05/31 06:15:05;;;;;;;1.47;1.37;;;12.90;57.50;12.60;97836.00;;;;5096096;28;20210;-76
2022/05/31 06:17:37;;;;;;;1.10;1.10;;;13.00;57.00;12.80;97838.00;;;;5078338;28;20222;-76
2022/05/31 06:20:07;;;;;;;1.57;1.47;;;13.20;58.00;13.00;97841.00;;;;5096194;28;20202;-72
2022/05/31 06:22:36;;;;;;;0.90;0.90;;;13.40;58.30;13.10;97844.00;;;;5096107;28;20226;-73
2022/05/31 06:25:05;;;;;;;1.10;1.10;;;13.60;58.60;13.10;97844.00;;;;5096097;28;20522;-73
2022/05/31 06:27:31;;;;;;;1.37;1.37;;;13.70;57.80;13.20;97844.00;;;;5095990;28;20202;-73
2022/05/31 06:29:58;;;;;;;2.57;2.13;;;13.70;56.50;13.30;97840.00;;;;5096020;28;20291;-76
2022/05/31 06:32:27;;;;;;;0.70;0.70;;;13.80;56.10;13.40;97845.00;;;;5095969;28;20289;-77
2022/05/31 06:34:54;;;;;;;1.40;1.30;;;13.90;55.70;13.60;97854.00;;;;5095872;28;20301;-74
2022/05/31 06:37:23;;;;;;;0.67;0.67;;;14.10;55.70;13.80;97846.00;;;;5096241;28;20245;-74
2022/05/31 06:39:52;;;;;;;1.00;1.00;;;14.20;53.70;13.90;97850.00;;;;5102852;28;20653;-74
2022/05/31 06:42:19;;;;;;;0.80;0.80;;;14.40;51.90;14.00;97852.00;;;;5099323;28;20726;-74
2022/05/31 06:44:48;;;;;;;0.73;0.73;;;14.50;51.50;14.10;97852.00;;;;5095819;28;20206;-74
2022/05/31 06:47:15;;;;;;;0.87;0.87;;;14.50;53.10;14.20;97849.00;;;;5095725;28;20195;-76
2022/05/31 06:49:44;;;;;;;0.80;0.80;;;14.70;52.70;14.30;97847.00;;;;5095858;28;20555;-77
2022/05/31 06:57:47;;;;;;;0.73;0.73;;;14.80;48.10;14.40;97848.00;;;;5095559;28;20649;-73
2022/05/31 07:00:18;;;;;;;0.60;0.60;;;14.90;47.80;14.60;97847.00;;;;5095329;28;20202;-75
2022/05/31 07:02:46;;;;;;;0.70;0.70;;;15.00;46.70;14.70;97851.00;;;;5095469;28;20487;-77
2022/05/31 07:05:17;;;;;;;0.60;0.60;;;15.20;46.60;14.80;97847.00;;;;5095451;28;20332;-75
2022/05/31 07:07:43;;;;;;;1.23;1.23;;;15.30;46.30;14.80;97833.00;;;;5095356;28;20657;-74
2022/05/31 07:10:11;;;;;;;0.60;0.60;;;15.30;47.60;14.90;97830.00;;;;5095312;28;20191;-73
2022/05/31 07:12:39;;;;;;;0.60;0.60;;;15.50;48.00;15.10;97828.00;;;;5095381;28;20206;-77
2022/05/31 07:15:09;;;;;;;0.90;0.90;;;15.50;47.00;15.10;97833.00;;;;5095236;28;20202;-74
2022/05/31 07:17:36;;;;;;;0.60;0.60;;;15.60;47.30;15.20;97841.00;;;;5095137;28;20265;-74
2022/05/31 07:20:04;;;;;;;9.93;1.57;;;;;15.40;97836.00;;;;5094530;28;20218;-75
2022/05/31 07:22:31;;;;;;;0.50;0.50;;;;;15.50;97830.00;;;;5095138;28;20192;-75
2022/05/31 07:25:01;;;;;;;0.50;0.50;;;;;15.50;97841.00;;;;5077246;28;20209;-75
2022/05/31 07:27:28;;;;;;;0.50;0.50;;;;;15.80;97837.00;;;;5094991;28;20574;-75
2022/05/31 07:29:55;;;;;;;0.77;0.77;;;;;15.90;97834.00;;;;5095003;28;20221;-75
2022/05/31 07:32:22;;;;;;;0.60;0.60;;;;;16.00;97828.00;;;;5094879;28;20194;-75
2022/05/31 07:34:50;;;;;;;0.50;0.50;;;;;16.20;97834.00;;;;5094919;28;20217;-75
2022/05/31 07:37:20;;;;;;;0.80;0.80;;;;;16.30;97825.00;;;;5094926;28;20222;-76
2022/05/31 07:39:48;;;;;;;1.37;1.20;;;;;16.40;97836.00;;;;5077126;28;20230;-74
2022/05/31 07:42:15;;;;;;;0.97;0.97;;;;;16.50;97842.00;;;;5094750;28;20245;-74
2022/05/31 07:44:44;;;;;;;0.60;0.60;;;;;16.50;97839.00;;;;5094797;28;20581;-74
2022/05/31 07:47:11;;;;;;;0.60;0.60;;;;;16.70;97836.00;;;;5094887;28;20248;-75
2022/05/31 07:49:38;;;;;;;0.60;0.60;;;;;16.60;97841.00;;;;5094709;28;20516;-75
2022/05/31 07:52:08;;;;;;;0.70;0.70;;;;;16.60;97833.00;;;;5077155;28;20579;-76
2022/05/31 07:54:39;;;;;;;0.90;0.90;;;;;16.70;97834.00;;;;5094620;28;20195;-74
2022/05/31 07:58:30;;;;;;;0.60;0.60;;;;;16.90;97836.00;;;;5094553;28;20673;-75
2022/05/31 07:59:55;;;;;;;0.53;0.53;;;;;17.10;97838.00;;;;5094254;28;20222;-75
2022/05/31 08:02:22;;;;;;;0.40;0.40;;;;;17.30;97829.00;;;;5094469;28;20201;-77
2022/05/31 08:04:51;;;;;;;0.60;0.60;;;;;17.30;97825.00;;;;5094509;28;20249;-75
2022/05/31 08:07:18;;;;;;;0.60;0.60;;;;;17.30;97829.00;;;;5095297;28;20214;-75
2022/05/31 08:09:45;;;;;;;0.60;0.60;;;;;17.50;97826.00;;;;5094672;28;20187;-75
2022/05/31 08:12:14;;;;;;;1.70;1.17;;;;;17.40;97829.00;;;;5094464;28;20273;-74
2022/05/31 08:14:41;;;;;;;0.60;0.60;;;;;17.40;97826.00;;;;5094579;28;20239;-74
2022/05/31 08:17:09;;;;;;;0.80;0.80;;;;;17.30;97829.00;;;;5094171;28;20294;-74
2022/05/31 08:19:37;;;;;;;0.53;0.53;;;;;17.30;97826.00;;;;5094244;28;20201;-74
2022/05/31 08:22:07;;;;;;;0.60;0.60;;;;;17.50;97826.00;;;;5094501;28;20657;-75
2022/05/31 08:24:36;;;;;;;0.50;0.50;;;;;17.30;97825.00;;;;5094097;28;20246;-74
2022/05/31 08:27:05;;;;;;;0.60;0.60;;;;;17.50;97823.00;;;;5094241;28;20209;-75
2022/05/31 08:29:32;;;;;;;0.70;0.70;;;;;17.60;97818.00;;;;5094189;28;20252;-76
2022/05/31 08:32:01;;;;;;;0.50;0.50;;;;;17.70;97819.00;;;;5093324;28;20199;-76
2022/05/31 08:34:30;;;;;;;0.40;0.40;;;;;17.90;97809.00;;;;5094331;28;20198;-74
2022/05/31 08:36:57;;;;;;;0.60;0.60;;;;;18.00;97809.00;;;;5094051;28;20226;-74
2022/05/31 08:39:24;;;;;;;0.90;0.90;;;;;18.00;97809.00;;;;5093955;28;20228;-75
2022/05/31 08:41:57;;;;;;;0.53;0.53;;;;;18.00;97810.00;;;;5093957;28;20226;-73
2022/05/31 08:44:38;;;;;;;0.60;0.60;;;;;18.10;97804.00;;;;5093901;28;20191;-74
2022/05/31 08:47:18;;;;;;;0.73;0.73;;;;;18.30;97805.00;;;;5094233;28;20206;-76
2022/05/31 08:52:53;;;;;;;0.87;0.87;;;;;18.70;97812.00;;;;5093835;28;20218;-75
2022/05/31 08:58:14;;;;;;;0.60;0.60;;;;;19.10;97812.00;;;;5094344;28;20715;-75
2022/05/31 09:00:46;;;;;;;0.73;0.73;;;;;19.40;97817.00;;;;5083143;28;20207;-76
2022/05/31 09:03:19;;;;;;;0.50;0.50;;;;;19.90;97814.00;;;;5096315;28;20190;-75
2022/05/31 09:05:52;;;;;;;1.00;0.90;;;;;20.20;97818.00;;;;5093698;28;20228;-76
2022/05/31 09:08:24;;;;;;;0.50;0.50;;;;;20.30;97825.00;;;;5093599;28;20305;-76
2022/05/31 09:11:01;;;;;;;0.40;0.40;;;;;20.50;97815.00;;;;5093645;28;20203;-74
2022/05/31 09:13:34;;;;;;;0.40;0.40;;;;;20.60;97819.00;;;;5093733;28;20190;-76
2022/05/31 09:16:10;;;;;;;0.57;0.57;;;;;20.70;97822.00;;;;5093344;28;20234;-76
2022/05/31 09:18:42;;;;;;;0.60;0.60;;;;;20.60;97821.00;;;;5093551;28;20210;-75
2022/05/31 09:21:17;;;;;;;0.47;0.47;;;;;20.70;97817.00;;;;5095877;28;20280;-74
2022/05/31 09:23:46;;;;;;;0.50;0.50;;;;;20.60;97822.00;;;;5093705;28;20198;-75
2022/05/31 09:26:46;;;;;;;1.37;1.10;;;;;20.60;97815.00;;;;5093739;28;20234;-76
2022/05/31 09:29:17;;;;;;;0.77;0.77;;;;;20.80;97810.00;;;;5096076;28;20235;-77
2022/05/31 09:31:59;;;;;;;0.60;0.60;;;;;21.10;97821.00;;;;5093628;28;20679;-77
2022/05/31 09:35:10;;;;;;;0.87;0.87;;;;;21.00;97815.00;;;;5094001;28;20227;-76
2022/05/31 09:38:10;;;;;;;0.50;0.50;;;;;21.20;97819.00;;;;5078991;28;20277;-76
2022/05/31 09:40:42;;;;;;;0.40;0.40;;;;;21.60;97818.00;;;;5093489;28;20305;-75
2022/05/31 09:43:18;;;;;;;0.40;0.40;;;;;21.80;97820.00;;;;5095780;28;20543;-77
2022/05/31 09:45:55;;;;;;;0.50;0.50;;;;;22.00;97817.00;;;;5096805;28;20247;-74
2022/05/31 09:48:25;;;;;;;0.73;0.73;;;;;22.20;97825.00;;;;5096652;28;20233;-76
2022/05/31 09:50:57;;;;;;;0.60;0.60;;;;;22.30;97822.00;;;;5096507;28;20251;-75
2022/05/31 09:59:06;;;;;;;0.75;0.75;;;;;22.20;97821.00;;;;5096547;28;20274;-76
2022/05/31 10:01:43;;;;;;;0.90;0.90;;;;;21.90;97832.00;;;;5096487;28;20198;-74
2022/05/31 10:04:13;;;;;;;0.50;0.50;;;;;22.00;97828.00;;;;5096450;28;20190;-76
2022/05/31 10:06:54;;;;;;;0.80;0.80;;;;;22.00;97827.00;;;;5096298;28;20231;-75
2022/05/31 10:09:28;;;;;;;1.00;1.00;;;;;22.10;97832.00;;;;5096411;28;20293;-75
2022/05/31 10:12:12;;;;;;;0.60;0.60;;;;;21.90;97824.00;;;;5096341;28;20254;-75
2022/05/31 10:14:43;;;;;;;0.73;0.73;;;;;21.90;97829.00;;;;5096275;28;20195;-76
2022/05/31 10:17:32;;;;;;;0.88;0.82;;;;;22.00;97822.00;;;;5096204;28;20684;-75
2022/05/31 10:20:13;;;;;;;0.70;0.70;;;;;21.90;97829.00;;;;5078414;28;20263;-76
2022/05/31 10:22:48;;;;;;;0.50;0.50;;;;;21.70;97820.00;;;;5096297;28;20214;-75
2022/05/31 10:25:21;;;;;;;0.50;0.50;;;;;21.60;97817.00;;;;5096153;28;20185;-75
2022/05/31 10:27:48;;;;;;;0.63;0.63;;;;;21.50;97820.00;;;;5078199;28;20535;-75
2022/05/31 10:30:20;;;;;;;0.70;0.70;;;;;21.40;97820.00;;;;5096217;28;20274;-74
2022/05/31 10:32:51;;;;;;;0.60;0.60;;;;;21.40;97818.00;;;;5095961;28;20222;-75
2022/05/31 10:35:24;;;;;;;0.50;0.50;;;;;21.50;97817.00;;;;5095963;28;20217;-74
2022/05/31 10:37:57;;;;;;;0.57;0.57;;;;;21.70;97829.00;;;;5095781;28;20222;-76
2022/05/31 10:40:31;;;;;;;0.60;0.60;;;;;21.60;97818.00;;;;5095653;28;20221;-75
2022/05/31 10:43:04;;;;;;;0.60;0.60;;;;;21.80;97819.00;;;;5095801;28;20407;-74
2022/05/31 10:45:31;;;;;;;0.55;0.55;;;;;21.80;97819.00;;;;5095968;28;20211;-76
2022/05/31 10:48:00;;;;;;;0.40;0.40;;;;;22.00;97821.00;;;;5095942;28;20518;-76
2022/05/31 10:50:33;;;;;;;0.70;0.70;;;;;21.90;97818.00;;;;5101901;28;20202;-77
2022/05/31 10:53:14;;;;;;;0.40;0.40;;;;;22.00;97812.00;;;;5099468;28;20226;-76
2022/05/31 10:55:45;;;;;;;0.50;0.50;;;;;21.80;97819.00;;;;5077622;28;20202;-76
2022/05/31 10:58:47;;;;;;;0.70;0.70;;;;;21.90;97818.00;;;;5095876;28;20270;-77
2022/05/31 11:01:30;;;;;;;0.65;0.65;;;;;22.00;97819.00;;;;5095197;28;20598;-75
2022/05/31 11:04:13;;;;;;;0.50;0.50;;;;;22.10;97820.00;;;;5095453;28;20521;-76
2022/05/31 11:06:51;;;;;;;1.15;1.13;;;;;22.10;97819.00;;;;5095552;28;20201;-77
2022/05/31 11:12:31;;;;;;;0.50;0.50;;;;;22.20;97828.00;;;;5077943;28;20222;-76
2022/05/31 11:15:08;;;;;;;1.65;1.50;;;;;22.30;97829.00;;;;5095490;28;20191;-75
2022/05/31 11:18:05;;;;;;;0.50;0.50;;;;;22.30;97827.00;;;;5077369;28;20341;-75
2022/05/31 11:20:41;;;;;;;0.57;0.57;;;;;22.40;97824.00;;;;5095642;28;20559;-74
2022/05/31 11:23:23;;;;;;;1.95;0.82;;;;;22.10;97819.00;;;;5095588;28;20190;-74
2022/05/31 11:26:08;;;;;;;0.50;0.50;;;;;22.30;97822.00;;;;5095273;28;20225;-76
2022/05/31 11:28:46;;;;;;;0.40;0.40;;;;;22.10;97817.00;;;;5095092;28;20205;-75
2022/05/31 11:31:27;;;;;;;0.77;0.77;;;;;22.50;97818.00;;;;5095043;28;20539;-76
2022/05/31 11:34:07;;;;;;;0.73;0.73;;;;;22.60;97829.00;;;;5095198;28;20197;-75
2022/05/31 11:36:47;;;;;;;0.47;0.47;;;;;23.00;97814.00;;;;5095082;28;20297;-75
2022/05/31 11:39:31;;;;;;;0.47;0.47;;;;;23.40;97826.00;;;;5095134;28;20202;-76
2022/05/31 11:42:10;;;;;;;0.70;0.70;;;;;23.20;97826.00;;;;5094898;28;20191;-75
2022/05/31 11:45:00;;;;;;;0.40;0.40;;;;;23.10;97833.00;;;;5077269;28;20561;-74
2022/05/31 11:48:00;;;;;;;0.43;0.43;;;;;23.20;97819.00;;;;5094951;28;20256;-76
2022/05/31 11:50:40;;;;;;;0.50;0.50;;;;;23.40;97822.00;;;;5075641;28;20245;-75
2022/05/31 11:53:37;;;;;;;0.50;0.50;;;;;23.70;97821.00;;;;5094878;28;20668;-75
2022/05/31 11:56:08;;;;;;;0.60;0.60;;;;;24.00;97830.00;;;;5081077;28;20241;-74
2022/05/31 11:58:44;;;;;;;0.60;0.60;;;;;23.90;97819.00;;;;5093985;28;20563;-76
2022/05/31 12:01:18;;;;;;;0.40;0.40;;;;;24.20;97826.00;;;;5095456;28;20194;-74
2022/05/31 12:04:01;;;;;;;0.93;0.93;;;;;24.20;97832.00;;;;5094490;28;20245;-73
2022/05/31 12:06:37;;;;;;;0.50;0.50;;;;;24.20;97829.00;;;;5094440;28;20499;-75
2022/05/31 12:09:13;;;;;;;0.50;0.50;;;;;24.30;97824.00;;;;5094655;28;20198;-74
2022/05/31 12:11:48;;;;;;;0.30;0.30;;;;;24.20;97823.00;;;;5094414;28;20201;-75
2022/05/31 12:14:16;;;;;;;8.10;1.67;;;;;24.10;97811.00;;;;5094389;28;20210;-76
2022/05/31 12:16:46;;;;;;;0.50;0.50;;;;;24.50;97815.00;;;;5094107;28;20226;-76